Terminal Aerodrome Forecast
Issued by NWS

Home | Current Version | Previous Version | Text Only | Print | Product List | Glossary On
Versions: 1 2 3 4 5 6 7 8 9 10 11 12 13 14
000
FTUS46 KPDT 231400 AAB
TAFDLS
TAF AMD
KDLS 231456Z 2315/2412 34012G22KT P6SM VCTS SCT060CB BKN100
      TEMPO 2315/2319 2SM RA BR FEW020 OVC040
     FM231900 31020G30KT 6SM -TSRA BKN060CB OVC090
     FM232200 31015G25KT P6SM VCTS BKN060CB OVC090
     FM240100 32010G20KT P6SM VCSH SCT060 BKN090
     FM240600 29010KT P6SM SCT060=

USA.gov is the U.S. government's official web portal to all federal, state and local government web resources and services.